Time;durP1;ratioP1;P1;durP2;ratioP2;P2;SDS_P1;SDS_P2;PMS_P1;PMS_P2;Temp;Humidity;BMP_temperature;BMP_pressure;BME280_temperature;BME280_humidity;BME280_pressure;Samples;Min_cycle;Max_cycle;Signal;HPM_P1;HPM_P2
2021/12/11 00:04:57;;;;;;;10.93;9.27;;;;;;;;;;12946440;23;20016;-85
2021/12/11 00:10:18;;;;;;;11.02;8.93;;;;;;;;;;12917727;23;20008;-85
2021/12/11 00:20:59;;;;;;;10.68;8.77;;;;;;;;;;12947200;23;19903;-85
2021/12/11 00:26:07;;;;;;;14.35;10.25;;;;;;;;;;12950408;23;20015;-84
2021/12/11 00:48:19;;;;;;;11.63;8.95;;;;;;;;;;12945509;23;20000;-85
2021/12/11 02:02:42;;;;;;;11.07;8.57;;;;;;;;;;12893355;23;20017;-83
2021/12/11 02:08:07;;;;;;;8.85;7.43;;;;;;;;;;12863756;23;20004;-83
2021/12/11 02:13:12;;;;;;;9.75;8.32;;;;;;;;;;12890531;23;20009;-83
2021/12/11 02:18:24;;;;;;;9.68;7.65;;;;;;;;;;12890127;23;20054;-83
2021/12/11 02:28:54;;;;;;;9.15;7.32;;;;;;;;;;12894365;23;20012;-84
2021/12/11 02:39:58;;;;;;;8.68;7.10;;;;;;;;;;12894577;23;20016;-84
2021/12/11 02:45:13;;;;;;;9.32;7.57;;;;;;;;;;12890979;23;20070;-84
2021/12/11 02:51:23;;;;;;;9.15;7.30;;;;;;;;;;12784016;23;20032;-84
2021/12/11 02:56:56;;;;;;;8.93;7.07;;;;;;;;;;12873188;23;20012;-84
2021/12/11 03:02:35;;;;;;;8.82;7.60;;;;;;;;;;12912226;23;20019;-87
2021/12/11 03:08:10;;;;;;;8.48;6.82;;;;;;;;;;12896273;23;20005;-84
2021/12/11 03:13:12;;;;;;;8.55;7.07;;;;;;;;;;12905364;23;20001;-84
2021/12/11 03:18:39;;;;;;;8.82;7.38;;;;;;;;;;12906629;23;20015;-84
2021/12/11 03:24:10;;;;;;;9.15;7.60;;;;;;;;;;12903978;23;20004;-84
2021/12/11 03:35:36;;;;;;;7.72;6.68;;;;;;;;;;12639430;23;20002;-83
2021/12/11 03:52:54;;;;;;;8.32;6.43;;;;;;;;;;12873422;23;20024;-84
2021/12/11 03:58:14;;;;;;;8.20;7.03;;;;;;;;;;12624753;23;20081;-84
2021/12/11 04:03:42;;;;;;;8.80;7.32;;;;;;;;;;12603301;23;20006;-84
2021/12/11 04:14:25;;;;;;;7.97;6.88;;;;;;;;;;12894702;23;20083;-84
2021/12/11 04:19:30;;;;;;;8.40;6.55;;;;;;;;;;12880937;23;20004;-85
2021/12/11 04:24:51;;;;;;;7.47;6.20;;;;;;;;;;12921961;23;19997;-84
2021/12/11 04:42:14;;;;;;;7.85;6.15;;;;;;;;;;12620319;23;20093;-84
2021/12/11 05:04:45;;;;;;;8.40;6.13;;;;;;;;;;12685148;23;20010;-85
2021/12/11 05:15:40;;;;;;;8.70;7.10;;;;;;;;;;12876985;23;20023;-84
2021/12/11 05:26:37;;;;;;;12.55;8.05;;;;;;;;;;12876390;23;20449;-88
2021/12/11 05:32:12;;;;;;;8.05;6.07;;;;;;;;;;12863271;23;20009;-88
2021/12/11 05:37:34;;;;;;;9.88;7.57;;;;;;;;;;12733457;23;20032;-88
2021/12/11 05:42:37;;;;;;;9.57;7.10;;;;;;;;;;12808279;23;20043;-88
2021/12/11 06:16:02;;;;;;;14.27;8.35;;;;;;;;;;12919693;23;20091;-85
2021/12/11 06:21:34;;;;;;;12.07;7.57;;;;;;;;;;12917793;23;20024;-83
2021/12/11 06:38:29;;;;;;;18.98;10.73;;;;;;;;;;12880427;23;20035;-88
2021/12/11 06:43:30;;;;;;;21.20;11.75;;;;;;;;;;12852112;23;20008;-87
2021/12/11 06:54:12;;;;;;;19.02;11.50;;;;;;;;;;12872185;23;20013;-88
2021/12/11 06:59:17;;;;;;;30.42;16.67;;;;;;;;;;12841280;23;20429;-88
2021/12/11 07:04:25;;;;;;;24.20;13.80;;;;;;;;;;12841657;23;20028;-88
2021/12/11 07:20:54;;;;;;;20.33;12.40;;;;;;;;;;12870286;23;20020;-87
2021/12/11 07:26:19;;;;;;;38.00;22.92;;;;;;;;;;12846524;23;20008;-88
2021/12/11 07:31:22;;;;;;;24.67;15.02;;;;;;;;;;12870688;23;20005;-88
2021/12/11 07:36:23;;;;;;;19.90;12.90;;;;;;;;;;12842855;23;20451;-88
2021/12/11 07:41:24;;;;;;;25.75;15.27;;;;;;;;;;12869015;23;20425;-88
2021/12/11 07:46:27;;;;;;;22.50;13.98;;;;;;;;;;12842935;23;20008;-85
2021/12/11 07:51:28;;;;;;;25.75;15.35;;;;;;;;;;12867993;23;19992;-85
2021/12/11 07:56:29;;;;;;;21.73;13.05;;;;;;;;;;12861738;23;20016;-87
2021/12/11 08:01:33;;;;;;;17.10;10.40;;;;;;;;;;12825653;23;20477;-86
2021/12/11 08:06:35;;;;;;;20.58;13.63;;;;;;;;;;12861171;23;20015;-85
2021/12/11 08:11:36;;;;;;;26.35;16.42;;;;;;;;;;12861195;23;20004;-84
2021/12/11 08:16:45;;;;;;;26.02;16.73;;;;;;;;;;12874610;23;20007;-83
2021/12/11 08:21:47;;;;;;;25.85;16.63;;;;;;;;;;12850263;23;20004;-84
2021/12/11 08:26:50;;;;;;;24.48;16.80;;;;;;;;;;12850328;23;20005;-83
2021/12/11 08:31:53;;;;;;;23.92;17.05;;;;;;;;;;12859414;23;20012;-83
2021/12/11 08:36:54;;;;;;;27.45;17.05;;;;;;;;;;12847438;23;20092;-85
2021/12/11 08:41:56;;;;;;;23.85;16.02;;;;;;;;;;12848388;23;20000;-84
2021/12/11 08:46:58;;;;;;;26.08;16.95;;;;;;;;;;12881514;23;20005;-84
2021/12/11 08:52:06;;;;;;;27.15;18.50;;;;;;;;;;12847426;23;20013;-82
2021/12/11 08:57:09;;;;;;;25.88;17.80;;;;;;;;;;12861016;23;20023;-84
2021/12/11 09:02:28;;;;;;;25.83;17.35;;;;;;;;;;12871921;23;20004;-82
2021/12/11 09:07:37;;;;;;;27.58;17.98;;;;;;;;;;12856485;23;20005;-84
2021/12/11 09:12:41;;;;;;;28.70;18.08;;;;;;;;;;12846504;23;20099;-84
2021/12/11 09:18:00;;;;;;;25.50;17.55;;;;;;;;;;12848004;23;20013;-80
2021/12/11 09:23:13;;;;;;;26.45;17.30;;;;;;;;;;12853920;23;20020;-82
2021/12/11 09:28:27;;;;;;;45.30;19.23;;;;;;;;;;12854934;23;20005;-82
2021/12/11 09:33:30;;;;;;;26.08;18.60;;;;;;;;;;12850635;23;20009;-82
2021/12/11 09:38:34;;;;;;;27.85;18.20;;;;;;;;;;12858719;23;20095;-82
2021/12/11 09:43:39;;;;;;;24.23;16.65;;;;;;;;;;12853887;23;20004;-81
2021/12/11 09:48:47;;;;;;;26.38;18.55;;;;;;;;;;12852976;23;20036;-86
2021/12/11 09:53:50;;;;;;;23.98;16.98;;;;;;;;;;12866957;23;20001;-88
2021/12/11 09:59:08;;;;;;;23.17;15.80;;;;;;;;;;12887097;23;20016;-87
2021/12/11 10:04:18;;;;;;;20.27;14.70;;;;;;;;;;12871580;23;20009;-87
2021/12/11 10:09:24;;;;;;;24.87;16.30;;;;;;;;;;12862258;23;20086;-87
2021/12/11 10:14:35;;;;;;;18.52;13.20;;;;;;;;;;12858333;23;20004;-83
2021/12/11 10:19:37;;;;;;;22.75;16.42;;;;;;;;;;12858999;23;20009;-85
2021/12/11 10:24:39;;;;;;;17.10;12.73;;;;;;;;;;12883451;23;20027;-85
2021/12/11 10:30:22;;;;;;;;;;;;;;;;;;;;;
2021/12/11 10:35:35;;;;;;;21.42;14.73;;;;;;;;;;12847778;23;20118;-85
2021/12/11 10:40:48;;;;;;;15.68;12.00;;;;;;;;;;12851129;23;20005;-86
2021/12/11 10:45:49;;;;;;;19.38;12.45;;;;;;;;;;12847081;23;20060;-86
2021/12/11 10:50:56;;;;;;;17.63;11.38;;;;;;;;;;12846948;23;20313;-86
2021/12/11 10:55:58;;;;;;;19.48;12.93;;;;;;;;;;12864695;23;20039;-87
2021/12/11 11:01:01;;;;;;;14.38;9.93;;;;;;;;;;12858392;23;20333;-83
2021/12/11 11:06:03;;;;;;;21.55;14.25;;;;;;;;;;12845023;23;20004;-82
2021/12/11 11:11:09;;;;;;;22.15;16.30;;;;;;;;;;12850687;23;20009;-86
2021/12/11 11:16:10;;;;;;;23.63;16.17;;;;;;;;;;12851616;23;20062;-86
2021/12/11 11:21:10;;;;;;;;;;;;;;;;;;12851928;23;20019;-87
2021/12/11 11:26:14;;;;;;;26.52;16.88;;;;;;;;;;12855234;23;19904;-86
2021/12/11 11:31:23;;;;;;;21.70;16.15;;;;;;;;;;12858238;23;20008;-82
2021/12/11 11:36:26;;;;;;;23.05;16.40;;;;;;;;;;12905976;23;20012;-82
2021/12/11 11:41:29;;;;;;;22.00;16.58;;;;;;;;;;12890883;23;20008;-82
2021/12/11 11:46:31;;;;;;;19.40;14.75;;;;;;;;;;12891836;23;20013;-82
2021/12/11 11:51:35;;;;;;;18.27;14.15;;;;;;;;;;12891108;23;20039;-82
2021/12/11 11:56:43;;;;;;;21.33;14.68;;;;;;;;;;12881831;23;20009;-83
2021/12/11 12:01:46;;;;;;;17.05;13.13;;;;;;;;;;12867645;23;20429;-85
2021/12/11 12:06:53;;;;;;;14.65;10.85;;;;;;;;;;12887106;23;20012;-83
2021/12/11 12:11:58;;;;;;;14.82;10.98;;;;;;;;;;12858980;23;20001;-83
2021/12/11 12:16:59;;;;;;;18.25;12.60;;;;;;;;;;12854641;23;20437;-85
2021/12/11 12:22:20;;;;;;;11.43;8.95;;;;;;;;;;12856741;23;20016;-87
2021/12/11 12:27:37;;;;;;;17.17;12.95;;;;;;;;;;12855147;23;20012;-86
2021/12/11 12:38:23;;;;;;;13.77;9.65;;;;;;;;;;12889248;23;20008;-87
2021/12/11 13:00:51;;;;;;;12.07;8.35;;;;;;;;;;12911000;23;20011;-86
2021/12/11 13:05:59;;;;;;;12.85;8.50;;;;;;;;;;12864476;23;19993;-86
2021/12/11 13:11:12;;;;;;;12.65;8.77;;;;;;;;;;12882120;23;20013;-86
2021/12/11 13:16:35;;;;;;;15.82;8.88;;;;;;;;;;12850289;23;20054;-87
2021/12/11 13:21:58;;;;;;;11.50;8.68;;;;;;;;;;12892416;23;20035;-84
2021/12/11 13:44:04;;;;;;;10.35;7.70;;;;;;;;;;12686316;23;20443;-87
2021/12/11 13:49:45;;;;;;;10.25;7.25;;;;;;;;;;12628206;23;20054;-86
2021/12/11 17:46:47;;;;;;;23.67;13.50;;;;;;;;;;12829895;23;20001;-86
2021/12/11 18:37:35;;;;;;;16.73;11.15;;;;;;;;;;12688698;23;20010;-85
2021/12/11 18:42:37;;;;;;;23.40;13.98;;;;;;;;;;12664500;23;20002;-86
2021/12/11 18:47:38;;;;;;;17.58;12.02;;;;;;;;;;12726474;23;20021;-86
2021/12/11 18:52:41;;;;;;;16.58;10.82;;;;;;;;;;12787764;23;20009;-85
2021/12/11 18:57:44;;;;;;;16.20;10.43;;;;;;;;;;12789033;23;20084;-84
2021/12/11 19:02:50;;;;;;;18.48;12.45;;;;;;;;;;12786108;23;20002;-86
2021/12/11 19:07:51;;;;;;;16.73;11.25;;;;;;;;;;12806322;23;20031;-85
2021/12/11 19:12:52;;;;;;;15.02;9.98;;;;;;;;;;12813405;23;20009;-85
2021/12/11 19:17:54;;;;;;;20.55;14.68;;;;;;;;;;12786700;23;20001;-84
2021/12/11 19:22:56;;;;;;;16.83;11.50;;;;;;;;;;12813093;23;20068;-85
2021/12/11 19:27:58;;;;;;;16.10;10.68;;;;;;;;;;12785885;23;20024;-85
2021/12/11 19:33:05;;;;;;;21.42;14.73;;;;;;;;;;12785185;23;20045;-84
2021/12/11 19:38:06;;;;;;;14.68;10.00;;;;;;;;;;12786959;23;20009;-84
2021/12/11 19:43:08;;;;;;;14.43;10.15;;;;;;;;;;12786387;23;20452;-85
2021/12/11 19:48:10;;;;;;;14.35;11.15;;;;;;;;;;12787344;23;20421;-85
2021/12/11 19:53:13;;;;;;;13.63;9.13;;;;;;;;;;12796447;23;20044;-85
2021/12/11 19:58:14;;;;;;;12.95;9.48;;;;;;;;;;12834597;23;20085;-86
2021/12/11 20:03:17;;;;;;;12.73;9.07;;;;;;;;;;12811752;23;20064;-86
2021/12/11 20:08:20;;;;;;;14.30;10.63;;;;;;;;;;12809009;23;20013;-86
2021/12/11 20:13:24;;;;;;;13.75;9.27;;;;;;;;;;12816509;23;20033;-86
2021/12/11 20:18:27;;;;;;;12.63;8.70;;;;;;;;;;12818258;23;20013;-86
2021/12/11 20:23:29;;;;;;;12.30;8.52;;;;;;;;;;12816065;23;20001;-86
2021/12/11 20:28:30;;;;;;;11.20;8.18;;;;;;;;;;12812109;23;20012;-86
2021/12/11 20:33:33;;;;;;;11.25;8.07;;;;;;;;;;12813640;23;20059;-86
2021/12/11 20:38:34;;;;;;;11.57;7.90;;;;;;;;;;12838462;23;20029;-86
2021/12/11 20:43:37;;;;;;;12.90;8.35;;;;;;;;;;12812065;23;20009;-86
2021/12/11 20:48:39;;;;;;;11.13;7.10;;;;;;;;;;12815393;23;20073;-87
2021/12/11 20:53:42;;;;;;;10.80;7.50;;;;;;;;;;12814446;23;20005;-86
2021/12/11 20:58:43;;;;;;;11.07;7.30;;;;;;;;;;12840015;23;20005;-86
2021/12/11 21:03:44;;;;;;;;;;;;;;;;;;12817563;23;20029;-86
2021/12/11 21:08:47;;;;;;;8.80;6.50;;;;;;;;;;12841380;23;19900;-86
2021/12/11 21:13:49;;;;;;;8.68;6.65;;;;;;;;;;12810665;23;20000;-86
2021/12/11 21:18:52;;;;;;;11.05;6.63;;;;;;;;;;12814612;23;20011;-86
2021/12/11 21:24:08;;;;;;;11.63;6.72;;;;;;;;;;12811785;23;20036;-86
2021/12/11 21:29:13;;;;;;;10.38;6.43;;;;;;;;;;12810044;23;20008;-86
2021/12/11 21:34:14;;;;;;;12.77;7.72;;;;;;;;;;12812004;23;20024;-86
2021/12/11 21:39:18;;;;;;;8.50;6.03;;;;;;;;;;12813457;23;20009;-87
2021/12/11 21:44:20;;;;;;;9.82;5.97;;;;;;;;;;12843696;23;20032;-86
2021/12/11 21:49:23;;;;;;;8.73;5.20;;;;;;;;;;12814848;23;20013;-86
2021/12/11 21:54:35;;;;;;;8.77;5.90;;;;;;;;;;12812654;23;20008;-86
2021/12/11 21:59:38;;;;;;;10.13;6.75;;;;;;;;;;12815329;23;20005;-87
2021/12/11 22:04:41;;;;;;;8.90;6.22;;;;;;;;;;12814378;23;20096;-87
2021/12/11 22:09:44;;;;;;;12.00;6.88;;;;;;;;;;12839934;23;20060;-86
2021/12/11 22:14:46;;;;;;;10.23;6.68;;;;;;;;;;12816643;23;20009;-86
2021/12/11 22:19:49;;;;;;;8.25;5.40;;;;;;;;;;12815301;23;20370;-87
2021/12/11 22:24:50;;;;;;;9.57;5.90;;;;;;;;;;12806828;23;20032;-87
2021/12/11 22:29:51;;;;;;;10.88;6.07;;;;;;;;;;12810414;23;20005;-87
2021/12/11 22:34:53;;;;;;;8.23;5.88;;;;;;;;;;12813832;23;20024;-86
2021/12/11 22:39:56;;;;;;;9.45;6.25;;;;;;;;;;12817426;23;20349;-87
2021/12/11 22:45:00;;;;;;;8.38;5.72;;;;;;;;;;12817391;23;20056;-85
2021/12/11 22:50:06;;;;;;;6.70;4.60;;;;;;;;;;12817592;23;20103;-87
2021/12/11 22:55:12;;;;;;;11.00;6.35;;;;;;;;;;12817254;23;20008;-86
2021/12/11 23:00:40;;;;;;;7.25;4.97;;;;;;;;;;12817739;23;20005;-87
2021/12/11 23:05:41;;;;;;;10.98;5.70;;;;;;;;;;12817421;23;20005;-87
2021/12/11 23:10:44;;;;;;;10.55;5.90;;;;;;;;;;12816571;23;20012;-87
2021/12/11 23:16:00;;;;;;;6.43;4.07;;;;;;;;;;12818029;23;20005;-87
2021/12/11 23:21:04;;;;;;;9.63;5.03;;;;;;;;;;12816830;23;20009;-86
2021/12/11 23:26:10;;;;;;;7.45;3.95;;;;;;;;;;12817212;23;20005;-87
2021/12/11 23:31:14;;;;;;;11.10;5.90;;;;;;;;;;12817787;23;19986;-87
2021/12/11 23:36:17;;;;;;;9.40;5.18;;;;;;;;;;12842753;23;20029;-87
2021/12/11 23:41:21;;;;;;;9.98;4.88;;;;;;;;;;12815609;23;20005;-87
2021/12/11 23:46:22;;;;;;;6.90;3.50;;;;;;;;;;12815978;23;20013;-87
2021/12/11 23:51:28;;;;;;;5.75;3.67;;;;;;;;;;12813532;23;20037;-87
2021/12/11 23:56:29;;;;;;;7.28;3.97;;;;;;;;;;12810532;23;20333;-87
